Muskoka Airport
CYQA : rendu visible

Aérodrome :











RETROUVEZ-NOUS SUR...

 
LOGIN :

S'inscrire | Disclaimer

   EN    FR    IT 

 









Légende :    VFR   VFR Marginal   IFR   IFR Intensif   IFR Très Intensif
Visi : 
Plafond : 
>= 8 km
>= 3000ft
5 à 8 km
1000 à 3000 ft
1500m à 5 km
500 à 1000 ft
800 à 1500m
200 à 500 ft
< 800m
< 200 ft
Symboles :   Orages  Brouillard  Fortes neiges  Fortes précipitations  Vent > 20 kt






- Altitude de l'aérodrome : 925 ft
- Code IATA : YQA


CYQA - Muskoka

DERNIER METAR :
  • 190306Z AUTO 29014G23KT 7SM -SN OVC018 M03/M06 A2999 RMK SLP170

METARs EXPIRÉS :
  • 190200Z AUTO 26010G22KT 210V300 9SM -SN OVC016 M02/M05 A2995 RMK SLP158
  • 190128Z AUTO 26013G21KT 240V300 9SM -SN OVC016 M02/M05 A2993 RMK SLP153
  • 190101Z AUTO 26016G26KT 7SM -SN OVC016 M02/M05 A2992 RMK SLP149

Prévision TAF périmée.



MET'MAP, la Météo Aéronautique d'un coup d'oeil ! - Copyright ORBIFLY Décembre 2007 - Disclaimer

ORBIFLY MET'MAP TEAM :

Programmation & Développement : Alexandra Zaïnal
Sur une idée originale de : Baudouin d'Aumeries
Assistance à la programmation : Marc-Olivier Méhu
Soutien technique & logistique : Manuel Goepfert

Contact : metmap@orbifly.com




SOURCES & CREDITS :

   NOAA       Earth
Advisory